createdAt,value
2022-11-24T00:03:00.625Z,5.02
2022-11-24T00:06:07.675Z,4.98
2022-11-24T00:09:10.460Z,4.99
2022-11-24T00:12:13.211Z,4.97
2022-11-24T00:15:15.403Z,4.96
2022-11-24T00:18:17.902Z,4.91
2022-11-24T00:21:20.795Z,4.95
2022-11-24T00:24:23.272Z,4.98
2022-11-24T00:27:25.489Z,4.98
2022-11-24T00:30:28.791Z,4.91
2022-11-24T00:33:31.124Z,4.92
2022-11-24T00:36:34.827Z,4.92
2022-11-24T00:39:37.095Z,4.96
2022-11-24T00:42:39.705Z,4.92
2022-11-24T00:45:42.647Z,4.95
2022-11-24T00:48:46.259Z,4.95
2022-11-24T00:51:48.437Z,4.92
2022-11-24T00:54:50.918Z,4.91
2022-11-24T00:57:53.152Z,4.89
2022-11-24T01:00:56.259Z,4.91
2022-11-24T01:04:01.341Z,4.95
2022-11-24T01:07:03.872Z,4.96
2022-11-24T01:10:06.412Z,4.95
2022-11-24T01:13:08.896Z,4.97
2022-11-24T01:16:18.938Z,4.94
2022-11-24T01:19:22.242Z,4.92
2022-11-24T01:22:26.409Z,4.90
2022-11-24T01:25:28.859Z,4.87
2022-11-24T01:28:31.312Z,4.92
2022-11-24T01:31:34.278Z,4.92
2022-11-24T01:34:37.537Z,4.90
2022-11-24T01:37:40.025Z,4.87
2022-11-24T01:40:42.237Z,4.89
2022-11-24T01:43:45.050Z,4.87
2022-11-24T01:46:48.819Z,4.82
2022-11-24T01:49:55.785Z,4.85
2022-11-24T01:52:58.481Z,4.84
2022-11-24T01:56:01.077Z,4.84
2022-11-24T01:59:05.009Z,4.88
2022-11-24T02:02:07.948Z,4.89
2022-11-24T02:05:13.216Z,4.91
2022-11-24T02:08:26.011Z,4.88
2022-11-24T02:11:29.478Z,4.84
2022-11-24T02:14:34.554Z,4.85
2022-11-24T02:17:37.303Z,4.88
2022-11-24T02:20:39.936Z,4.88
2022-11-24T02:23:45.178Z,4.89
2022-11-24T02:26:48.762Z,4.87
2022-11-24T02:29:51.362Z,4.86
2022-11-24T02:32:54.245Z,4.85
2022-11-24T02:35:56.566Z,4.84
2022-11-24T02:38:59.088Z,4.86
2022-11-24T02:42:08.113Z,4.81
2022-11-24T02:45:11.383Z,4.79
2022-11-24T02:48:14.230Z,4.73
2022-11-24T02:51:17.189Z,4.76
2022-11-24T02:54:19.935Z,4.73
2022-11-24T02:57:23.166Z,4.71
2022-11-24T03:00:25.348Z,4.68
2022-11-24T03:03:27.904Z,4.64
2022-11-24T03:06:30.076Z,4.62
2022-11-24T03:09:32.984Z,4.57
2022-11-24T03:12:35.584Z,4.54
2022-11-24T03:15:38.155Z,4.57
2022-11-24T03:18:40.563Z,4.56
2022-11-24T03:21:43.018Z,4.56
2022-11-24T03:24:45.251Z,4.52
2022-11-24T03:27:47.812Z,4.49
2022-11-24T03:30:50.245Z,4.53
2022-11-24T03:33:52.781Z,4.51
2022-11-24T03:36:55.025Z,4.51
2022-11-24T03:39:57.536Z,4.50
2022-11-24T03:42:59.713Z,4.49
2022-11-24T03:46:02.200Z,4.50
2022-11-24T03:49:04.548Z,4.41
2022-11-24T03:52:08.356Z,4.46
2022-11-24T03:55:10.664Z,4.39
2022-11-24T03:58:13.163Z,4.42
2022-11-24T04:01:15.400Z,4.39
2022-11-24T04:04:18.136Z,4.36
2022-11-24T04:07:20.367Z,4.35
2022-11-24T04:10:24.514Z,4.31
2022-11-24T04:13:27.115Z,4.31
2022-11-24T04:16:29.623Z,4.26
2022-11-24T04:19:31.856Z,4.23
2022-11-24T04:22:35.184Z,4.24
2022-11-24T04:25:37.493Z,4.22
2022-11-24T04:28:39.997Z,4.20
2022-11-24T04:31:42.261Z,4.22
2022-11-24T04:34:44.867Z,4.18
2022-11-24T04:37:47.081Z,4.09
2022-11-24T04:40:49.575Z,4.02
2022-11-24T04:43:51.770Z,4.03
2022-11-24T04:46:54.478Z,3.88
2022-11-24T04:49:56.792Z,3.84
2022-11-24T04:52:59.265Z,3.90
2022-11-24T04:56:04.593Z,3.88
2022-11-24T04:59:08.570Z,3.93
2022-11-24T05:02:11.681Z,3.80
2022-11-24T05:05:14.222Z,3.77
2022-11-24T05:08:16.430Z,3.72
2022-11-24T05:11:19.272Z,3.69
2022-11-24T05:14:21.430Z,3.69
2022-11-24T05:17:24.022Z,3.68
2022-11-24T05:20:26.398Z,3.65
2022-11-24T05:23:28.913Z,3.65
2022-11-24T05:26:31.156Z,3.68
2022-11-24T05:29:33.685Z,3.69
2022-11-24T05:32:35.891Z,3.71
2022-11-24T05:35:38.681Z,3.77
2022-11-24T05:38:41.325Z,3.84
2022-11-24T05:41:43.706Z,3.88
2022-11-24T05:44:46.010Z,3.93
2022-11-24T05:47:49.402Z,3.98
2022-11-24T05:50:58.511Z,3.98
2022-11-24T05:54:00.936Z,3.98
2022-11-24T05:57:03.309Z,4.00
2022-11-24T06:00:07.237Z,4.00
2022-11-24T06:03:14.606Z,4.04
2022-11-24T06:06:17.293Z,4.13
2022-11-24T06:09:19.657Z,4.12
2022-11-24T06:12:22.250Z,4.18
2022-11-24T06:15:24.542Z,4.19
2022-11-24T06:18:27.042Z,4.19
2022-11-24T06:21:29.329Z,4.24
2022-11-24T06:24:32.047Z,4.23
2022-11-24T06:27:34.570Z,4.24
2022-11-24T06:30:38.184Z,4.32
2022-11-24T06:33:40.459Z,4.31
2022-11-24T06:36:42.992Z,4.37
2022-11-24T06:39:45.229Z,4.32
2022-11-24T06:42:51.647Z,4.35
2022-11-24T06:45:53.979Z,4.41
2022-11-24T06:48:56.926Z,4.43
2022-11-24T06:51:59.369Z,4.42
2022-11-24T06:55:01.962Z,4.49
2022-11-24T06:58:04.449Z,4.54
2022-11-24T07:01:07.058Z,4.55
2022-11-24T07:04:10.323Z,4.59
2022-11-24T07:07:12.968Z,4.66
2022-11-24T07:10:15.390Z,4.68
2022-11-24T07:13:18.407Z,4.69
2022-11-24T07:16:22.280Z,4.68
2022-11-24T07:19:25.346Z,4.67
2022-11-24T07:22:28.129Z,4.65
2022-11-24T07:25:30.697Z,4.68
2022-11-24T07:28:33.583Z,4.73
2022-11-24T07:31:36.149Z,4.76
2022-11-24T07:34:38.459Z,4.80
2022-11-24T07:37:41.005Z,4.83
2022-11-24T07:40:43.270Z,4.88
2022-11-24T07:43:46.182Z,5.00
2022-11-24T07:46:51.244Z,5.06
2022-11-24T07:49:53.676Z,5.15
2022-11-24T07:52:55.920Z,5.13
2022-11-24T07:56:02.551Z,5.10
2022-11-24T07:59:04.851Z,5.17
2022-11-24T08:02:07.512Z,5.23
2022-11-24T08:05:10.068Z,5.25
2022-11-24T08:08:12.450Z,5.24
2022-11-24T08:11:16.131Z,5.20
2022-11-24T08:14:18.362Z,5.28
2022-11-24T08:17:21.201Z,5.31
2022-11-24T08:20:23.448Z,5.38
2022-11-24T08:23:26.254Z,5.31
2022-11-24T08:26:28.500Z,5.36
2022-11-24T08:29:31.510Z,5.40
2022-11-24T08:32:33.868Z,5.47
2022-11-24T08:35:37.962Z,5.54
2022-11-24T08:38:40.322Z,5.56
2022-11-24T08:41:42.754Z,5.56
2022-11-24T08:44:44.980Z,5.71
2022-11-24T08:47:51.100Z,5.73
2022-11-24T08:50:53.412Z,5.74
2022-11-24T08:53:56.806Z,5.72
2022-11-24T08:56:58.985Z,5.69
2022-11-24T09:00:01.701Z,5.74
2022-11-24T09:03:04.001Z,5.85
2022-11-24T09:06:07.179Z,5.85
2022-11-24T09:09:09.756Z,5.90
2022-11-24T09:12:14.661Z,5.79
2022-11-24T09:15:18.964Z,5.77
2022-11-24T09:18:25.186Z,5.78
2022-11-24T09:21:30.226Z,5.88
2022-11-24T09:24:32.917Z,6.04
2022-11-24T09:27:35.511Z,6.06
2022-11-24T09:30:38.720Z,6.18
2022-11-24T09:33:41.509Z,6.33
2022-11-24T09:36:44.079Z,6.51
2022-11-24T09:39:46.426Z,6.69
2022-11-24T09:42:58.142Z,6.78
2022-11-24T09:46:06.042Z,6.99
2022-11-24T09:49:15.685Z,7.18
2022-11-24T09:52:33.216Z,7.31
2022-11-24T09:55:52.126Z,7.44
2022-11-24T09:58:57.640Z,7.50
2022-11-24T10:02:00.280Z,7.38
2022-11-24T10:05:02.898Z,7.34
2022-11-24T10:08:20.441Z,7.26
2022-11-24T10:11:30.939Z,7.12
2022-11-24T10:14:45.049Z,6.91
2022-11-24T10:17:47.532Z,6.76
2022-11-24T10:20:58.885Z,6.43
2022-11-24T10:24:22.404Z,6.36
2022-11-24T10:27:39.892Z,6.23
2022-11-24T10:30:43.424Z,6.16
2022-11-24T10:33:46.094Z,6.22
2022-11-24T10:36:57.848Z,6.30
2022-11-24T10:40:17.193Z,6.30
2022-11-24T10:43:31.840Z,6.31
2022-11-24T10:46:39.187Z,6.29
2022-11-24T10:49:43.693Z,6.35
2022-11-24T10:53:08.901Z,6.37
2022-11-24T10:56:11.442Z,6.42
2022-11-24T10:59:34.529Z,6.53
2022-11-24T11:02:38.831Z,6.58
2022-11-24T11:05:43.679Z,6.62
2022-11-24T11:08:46.253Z,6.60
2022-11-24T11:11:49.192Z,6.72
2022-11-24T11:14:51.705Z,6.81
2022-11-24T11:17:57.408Z,6.96
2022-11-24T11:21:02.537Z,7.02
2022-11-24T11:24:15.211Z,7.10
2022-11-24T11:27:19.254Z,7.04
2022-11-24T11:34:03.437Z,7.20
2022-11-24T11:37:07.270Z,7.20
2022-11-24T11:40:17.935Z,7.22
2022-11-24T11:43:20.227Z,7.34
2022-11-24T11:46:24.443Z,7.37
2022-11-24T11:49:26.687Z,7.31
2022-11-24T11:52:58.564Z,7.31
2022-11-24T11:56:06.891Z,7.40
2022-11-24T11:59:12.918Z,7.54
2022-11-24T12:02:33.948Z,7.57
2022-11-24T12:05:55.529Z,7.55
2022-11-24T12:09:20.359Z,7.52
2022-11-24T12:12:39.826Z,7.58
2022-11-24T12:15:48.112Z,7.65
2022-11-24T12:18:58.272Z,7.76
2022-11-24T12:22:11.114Z,7.90
2022-11-24T12:25:16.796Z,7.59
2022-11-24T12:28:38.047Z,7.49
2022-11-24T12:31:43.541Z,7.23
2022-11-24T12:34:58.117Z,6.92
2022-11-24T12:38:00.616Z,6.70
2022-11-24T12:41:39.660Z,6.63
2022-11-24T12:44:50.273Z,6.58
2022-11-24T12:48:05.875Z,6.55
2022-11-24T12:51:15.028Z,6.50
2022-11-24T12:54:18.941Z,6.46
2022-11-24T12:57:28.013Z,6.43
2022-11-24T13:00:50.719Z,6.44
2022-11-24T13:03:53.246Z,6.52
2022-11-24T13:07:09.914Z,6.45
2022-11-24T13:10:40.492Z,6.46
2022-11-24T13:14:19.490Z,6.54
2022-11-24T13:17:32.348Z,6.67
2022-11-24T13:20:42.522Z,6.76
2022-11-24T13:23:56.083Z,6.85
2022-11-24T13:27:13.916Z,6.96
2022-11-24T13:30:34.682Z,6.97
2022-11-24T13:33:37.675Z,6.96
2022-11-24T13:36:51.979Z,7.05
2022-11-24T13:39:54.203Z,6.98
2022-11-24T13:43:02.223Z,7.02
2022-11-24T13:46:04.597Z,7.10
2022-11-24T13:49:13.389Z,7.10
2022-11-24T13:52:34.223Z,7.08
2022-11-24T13:55:38.891Z,7.05
2022-11-24T13:58:42.891Z,7.01
2022-11-24T14:01:46.871Z,7.02
2022-11-24T14:04:50.392Z,6.98
2022-11-24T14:07:53.243Z,6.98
2022-11-24T14:10:57.384Z,6.95
2022-11-24T14:14:14.686Z,6.95
2022-11-24T14:17:20.081Z,6.98
2022-11-24T14:20:23.949Z,6.96
2022-11-24T14:23:26.807Z,6.93
2022-11-24T14:26:33.542Z,6.88
2022-11-24T14:29:36.005Z,6.87
2022-11-24T14:32:38.421Z,6.83
2022-11-24T14:35:44.987Z,6.80
2022-11-24T14:38:47.642Z,6.78
2022-11-24T14:41:52.898Z,6.71
2022-11-24T14:44:55.719Z,6.69
2022-11-24T14:47:58.252Z,6.67
2022-11-24T14:51:15.526Z,6.68
2022-11-24T14:54:19.381Z,6.65
2022-11-24T14:57:31.660Z,6.65
2022-11-24T15:00:34.412Z,6.61
2022-11-24T15:03:37.064Z,6.59
2022-11-24T15:06:40.969Z,6.51
2022-11-24T15:09:51.915Z,6.46
2022-11-24T15:12:57.206Z,6.44
2022-11-24T15:16:03.138Z,6.39
2022-11-24T15:19:08.026Z,6.40
2022-11-24T15:22:29.329Z,6.35
2022-11-24T15:25:33.626Z,6.33
2022-11-24T15:28:36.269Z,6.28
2022-11-24T15:31:39.790Z,6.27
2022-11-24T15:34:42.033Z,6.29
2022-11-24T15:37:44.522Z,6.25
2022-11-24T15:40:48.080Z,6.18
2022-11-24T15:43:50.634Z,6.17
2022-11-24T15:46:55.302Z,6.11
2022-11-24T15:49:58.025Z,6.02
2022-11-24T15:53:00.399Z,5.99
2022-11-24T15:56:03.558Z,5.91
2022-11-24T15:59:05.812Z,5.89
2022-11-24T16:02:09.199Z,5.78
2022-11-24T16:05:12.695Z,5.69
2022-11-24T16:08:16.041Z,5.71
2022-11-24T16:11:18.560Z,5.66
2022-11-24T16:14:20.877Z,5.68
2022-11-24T16:17:23.435Z,5.61
2022-11-24T16:20:26.053Z,5.54
2022-11-24T16:23:28.744Z,5.51
2022-11-24T16:26:30.975Z,5.61
2022-11-24T16:29:38.200Z,5.58
2022-11-24T16:32:41.018Z,5.49
2022-11-24T16:35:46.234Z,5.42
2022-11-24T16:38:48.518Z,5.43
2022-11-24T16:41:51.096Z,5.43
2022-11-24T16:44:53.329Z,5.38
2022-11-24T16:47:55.769Z,5.33
2022-11-24T16:51:04.711Z,5.33
2022-11-24T16:54:07.311Z,5.30
2022-11-24T16:57:14.951Z,5.18
2022-11-24T17:00:17.962Z,5.31
2022-11-24T17:03:20.371Z,5.27
2022-11-24T17:06:23.592Z,5.23
2022-11-24T17:09:25.793Z,5.18
2022-11-24T17:12:28.373Z,5.16
2022-11-24T17:15:35.547Z,5.08
2022-11-24T17:18:40.640Z,5.09
2022-11-24T17:21:42.858Z,5.00
2022-11-24T17:24:45.403Z,4.90
2022-11-24T17:27:47.604Z,4.93
2022-11-24T17:30:50.177Z,4.93
2022-11-24T17:33:53.076Z,4.91
2022-11-24T17:36:55.685Z,4.84
2022-11-24T17:40:26.317Z,4.83
2022-11-24T17:43:20.520Z,4.86
2022-11-24T17:46:23.844Z,4.73
2022-11-24T17:49:26.683Z,4.69
2022-11-24T17:52:29.475Z,4.62
2022-11-24T17:55:31.987Z,4.57
2022-11-24T17:58:39.690Z,4.51
2022-11-24T18:01:45.214Z,4.52
2022-11-24T18:04:47.744Z,4.52
2022-11-24T18:07:50.003Z,4.47
2022-11-24T18:10:52.637Z,4.40
2022-11-24T18:14:00.310Z,4.32
2022-11-24T18:17:03.887Z,4.37
2022-11-24T18:20:06.601Z,4.39
2022-11-24T18:23:09.166Z,4.37
2022-11-24T18:26:13.047Z,4.41
2022-11-24T18:29:15.590Z,4.42
2022-11-24T18:32:18.009Z,4.42
2022-11-24T18:35:20.546Z,4.40
2022-11-24T18:38:23.081Z,4.38
2022-11-24T18:41:25.692Z,4.33
2022-11-24T18:44:32.887Z,4.27
2022-11-24T18:47:35.534Z,4.22
2022-11-24T18:50:37.773Z,4.18
2022-11-24T18:53:41.040Z,4.14
2022-11-24T18:56:43.310Z,4.13
2022-11-24T18:59:45.861Z,4.07
2022-11-24T19:02:51.549Z,4.03
2022-11-24T19:05:54.126Z,4.04
2022-11-24T19:08:57.149Z,4.05
2022-11-24T19:12:00.061Z,4.05
2022-11-24T19:15:02.357Z,3.96
2022-11-24T19:18:05.573Z,3.94
2022-11-24T19:21:07.878Z,3.88
2022-11-24T19:24:10.724Z,3.86
2022-11-24T19:27:14.424Z,3.83
2022-11-24T19:30:17.219Z,3.74
2022-11-24T19:33:21.503Z,3.71
2022-11-24T19:36:24.228Z,3.70
2022-11-24T19:39:26.468Z,3.70
2022-11-24T19:42:28.980Z,3.60
2022-11-24T19:45:32.678Z,3.49
2022-11-24T19:48:37.132Z,3.50
2022-11-24T19:51:39.833Z,3.52
2022-11-24T19:54:42.443Z,3.54
2022-11-24T19:57:44.802Z,3.55
2022-11-24T20:00:47.512Z,3.48
2022-11-24T20:03:55.112Z,3.41
2022-11-24T20:06:57.369Z,3.41
2022-11-24T20:10:06.017Z,3.39
2022-11-24T20:13:10.821Z,3.33
2022-11-24T20:16:20.519Z,3.30
2022-11-24T20:19:22.862Z,3.26
2022-11-24T20:22:25.395Z,3.28
2022-11-24T20:25:27.774Z,3.32
2022-11-24T20:28:30.551Z,3.24
2022-11-24T20:31:38.031Z,3.19
2022-11-24T20:34:40.607Z,3.12
2022-11-24T20:37:43.063Z,3.14
2022-11-24T20:40:45.634Z,3.17
2022-11-24T20:43:48.295Z,3.21
2022-11-24T20:46:50.900Z,3.30
2022-11-24T20:49:53.049Z,3.35
2022-11-24T20:52:55.575Z,3.32
2022-11-24T20:56:06.409Z,3.27
2022-11-24T20:59:11.826Z,3.23
2022-11-24T21:02:13.975Z,3.29
2022-11-24T21:05:16.616Z,3.31
2022-11-24T21:08:19.343Z,3.19
2022-11-24T21:11:22.724Z,3.11
2022-11-24T21:14:25.361Z,3.10
2022-11-24T21:17:27.857Z,3.19
2022-11-24T21:20:30.326Z,3.27
2022-11-24T21:23:32.911Z,3.37
2022-11-24T21:26:36.861Z,3.48
2022-11-24T21:29:39.475Z,3.39
2022-11-24T21:32:41.889Z,3.31
2022-11-24T21:35:44.433Z,3.22
2022-11-24T21:38:50.734Z,3.22
2022-11-24T21:41:53.339Z,3.27
2022-11-24T21:44:55.617Z,3.27
2022-11-24T21:47:59.307Z,3.24
2022-11-24T21:51:02.523Z,3.33
2022-11-24T21:54:05.616Z,3.30
2022-11-24T21:57:07.849Z,3.28
2022-11-24T22:00:10.861Z,3.29
2022-11-24T22:03:13.336Z,3.17
2022-11-24T22:06:16.600Z,3.08
2022-11-24T22:09:19.228Z,3.16
2022-11-24T22:12:21.506Z,3.05
2022-11-24T22:15:24.073Z,3.08
2022-11-24T22:18:26.401Z,3.07
2022-11-24T22:21:33.489Z,3.01
2022-11-24T22:24:35.662Z,2.97
2022-11-24T22:27:38.172Z,3.01
2022-11-24T22:30:40.485Z,3.09
2022-11-24T22:33:45.959Z,3.21
2022-11-24T22:36:48.218Z,3.33
2022-11-24T22:39:50.958Z,3.29
2022-11-24T22:42:53.187Z,3.29
2022-11-24T22:45:55.677Z,3.19
2022-11-24T22:48:59.147Z,3.17
2022-11-24T22:52:01.657Z,3.07
2022-11-24T22:55:04.023Z,3.16
2022-11-24T22:58:06.650Z,3.07
2022-11-24T23:01:11.202Z,2.99
2022-11-24T23:04:13.778Z,3.01
2022-11-24T23:07:16.089Z,2.97
2022-11-24T23:10:21.732Z,2.89
2022-11-24T23:13:23.950Z,2.87
2022-11-24T23:16:26.787Z,2.97
2022-11-24T23:19:29.080Z,3.04
2022-11-24T23:22:31.931Z,3.05
2022-11-24T23:25:34.356Z,3.08
2022-11-24T23:28:36.977Z,3.17
2022-11-24T23:31:42.351Z,3.20
2022-11-24T23:34:45.715Z,3.14
2022-11-24T23:38:08.207Z,3.29
2022-11-24T23:41:12.681Z,3.28
2022-11-24T23:44:15.400Z,3.18
2022-11-24T23:47:17.900Z,3.13
2022-11-24T23:50:20.174Z,3.12
2022-11-24T23:53:22.702Z,3.14
2022-11-24T23:56:33.783Z,3.08
2022-11-24T23:59:36.342Z,3.01
